createdAt,value
2018-09-24T00:01:34.972Z,8.95
2018-09-24T00:04:03.412Z,8.89
2018-09-24T00:06:31.878Z,8.90
2018-09-24T00:09:00.353Z,8.92
2018-09-24T00:11:28.809Z,8.91
2018-09-24T00:13:57.446Z,8.88
2018-09-24T00:16:25.885Z,8.86
2018-09-24T00:18:54.309Z,8.85
2018-09-24T00:21:22.728Z,8.85
2018-09-24T00:23:51.146Z,8.83
2018-09-24T00:26:19.582Z,8.81
2018-09-24T00:28:48.001Z,8.80
2018-09-24T00:31:16.454Z,8.82
2018-09-24T00:33:44.841Z,8.79
2018-09-24T00:36:13.666Z,8.78
2018-09-24T00:38:42.470Z,8.77
2018-09-24T00:41:10.973Z,8.75
2018-09-24T00:43:39.588Z,8.75
2018-09-24T00:46:08.250Z,8.75
2018-09-24T00:48:36.801Z,8.74
2018-09-24T00:51:05.298Z,8.75
2018-09-24T00:53:33.825Z,8.74
2018-09-24T00:56:03.350Z,8.71
2018-09-24T00:58:31.783Z,8.69
2018-09-24T01:01:00.274Z,8.69
2018-09-24T01:03:28.746Z,8.69
2018-09-24T01:05:57.538Z,8.68
2018-09-24T01:08:26.046Z,8.65
2018-09-24T01:10:55.118Z,8.62
2018-09-24T01:13:23.681Z,8.60
2018-09-24T01:15:52.265Z,8.61
2018-09-24T01:18:20.716Z,8.66
2018-09-24T01:20:49.217Z,8.69
2018-09-24T01:23:17.678Z,8.70
2018-09-24T01:25:47.122Z,8.68
2018-09-24T01:28:15.811Z,8.67
2018-09-24T01:30:44.368Z,8.64
2018-09-24T01:33:12.933Z,8.63
2018-09-24T01:35:42.124Z,8.61
2018-09-24T01:38:10.625Z,8.59
2018-09-24T01:40:39.165Z,8.56
2018-09-24T01:43:07.698Z,8.53
2018-09-24T01:45:36.189Z,8.51
2018-09-24T01:48:06.001Z,8.49
2018-09-24T01:50:34.713Z,8.47
2018-09-24T01:53:05.505Z,8.46
2018-09-24T01:55:34.089Z,8.45
2018-09-24T01:58:02.660Z,8.42
2018-09-24T02:00:31.103Z,8.41
2018-09-24T02:02:59.549Z,8.41
2018-09-24T02:05:28.129Z,8.44
2018-09-24T02:07:56.974Z,8.40
2018-09-24T02:10:26.464Z,8.40
2018-09-24T02:12:56.661Z,8.36
2018-09-24T02:15:30.004Z,8.32
2018-09-24T02:17:58.542Z,8.33
2018-09-24T02:20:27.099Z,8.33
2018-09-24T02:22:55.581Z,8.36
2018-09-24T02:25:24.096Z,8.39
2018-09-24T02:27:52.605Z,8.43
2018-09-24T02:30:21.151Z,8.44
2018-09-24T02:32:49.617Z,8.39
2018-09-24T02:35:18.189Z,8.37
2018-09-24T02:37:46.602Z,8.33
2018-09-24T02:40:25.513Z,8.29
2018-09-24T02:42:53.955Z,8.26
2018-09-24T02:45:22.483Z,8.20
2018-09-24T02:47:50.960Z,8.21
2018-09-24T02:50:19.849Z,8.17
2018-09-24T02:52:48.551Z,8.14
2018-09-24T02:55:18.413Z,8.13
2018-09-24T02:57:47.098Z,8.10
2018-09-24T03:00:21.373Z,8.09
2018-09-24T03:02:49.996Z,8.04
2018-09-24T03:05:18.501Z,8.02
2018-09-24T03:07:47.001Z,7.98
2018-09-24T03:10:15.546Z,7.98
2018-09-24T03:12:48.066Z,7.95
2018-09-24T03:15:17.017Z,7.93
2018-09-24T03:17:45.489Z,7.94
2018-09-24T03:20:14.027Z,7.96
2018-09-24T03:22:42.512Z,7.90
2018-09-24T03:25:17.197Z,7.91
2018-09-24T03:27:45.893Z,7.93
2018-09-24T03:30:14.386Z,7.92
2018-09-24T03:32:42.965Z,7.94
2018-09-24T03:35:11.363Z,7.96
2018-09-24T03:37:39.780Z,7.94
2018-09-24T03:40:08.210Z,7.94
2018-09-24T03:42:36.859Z,7.95
2018-09-24T03:45:05.356Z,7.96
2018-09-24T03:47:33.746Z,7.96
2018-09-24T03:50:02.174Z,7.95
2018-09-24T03:52:30.614Z,7.97
2018-09-24T03:54:59.027Z,7.95
2018-09-24T03:57:27.499Z,7.95
2018-09-24T03:59:55.890Z,7.94
2018-09-24T04:02:24.350Z,7.93
2018-09-24T04:04:57.981Z,7.90
2018-09-24T04:07:31.508Z,7.89
2018-09-24T04:10:05.307Z,7.87
2018-09-24T04:12:38.977Z,7.86
2018-09-24T04:15:12.770Z,7.87
2018-09-24T04:17:46.470Z,7.86
2018-09-24T04:20:20.115Z,7.85
2018-09-24T04:22:53.694Z,7.84
2018-09-24T04:25:29.422Z,7.82
2018-09-24T04:28:03.130Z,7.82
2018-09-24T04:30:36.946Z,7.80
2018-09-24T04:33:10.630Z,7.76
2018-09-24T04:35:44.294Z,7.75
2018-09-24T04:38:17.972Z,7.72
2018-09-24T04:40:51.850Z,7.71
2018-09-24T04:43:25.505Z,7.69
2018-09-24T04:45:59.229Z,7.65
2018-09-24T04:48:33.062Z,7.62
2018-09-24T04:51:06.668Z,7.62
2018-09-24T04:53:40.542Z,7.62
2018-09-24T04:56:14.381Z,7.61
2018-09-24T04:58:48.094Z,7.57
2018-09-24T05:01:21.677Z,7.60
2018-09-24T05:03:55.501Z,7.56
2018-09-24T05:06:29.197Z,7.61
2018-09-24T05:09:02.831Z,7.57
2018-09-24T05:11:36.590Z,7.60
2018-09-24T05:14:10.382Z,7.57
2018-09-24T05:16:44.155Z,7.60
2018-09-24T05:19:17.742Z,7.57
2018-09-24T05:21:51.402Z,7.56
2018-09-24T05:24:25.097Z,7.53
2018-09-24T05:26:58.693Z,7.55
2018-09-24T05:29:32.455Z,7.56
2018-09-24T05:32:06.282Z,7.54
2018-09-24T05:34:40.014Z,7.54
2018-09-24T05:37:13.606Z,7.56
2018-09-24T05:39:47.306Z,7.55
2018-09-24T05:42:21.032Z,7.59
2018-09-24T05:44:54.768Z,7.61
2018-09-24T05:47:28.591Z,7.64
2018-09-24T05:50:02.206Z,7.70
2018-09-24T05:52:35.814Z,7.69
2018-09-24T05:55:09.465Z,7.73
2018-09-24T05:57:43.260Z,7.77
2018-09-24T06:00:17.045Z,7.82
2018-09-24T06:02:50.802Z,7.88
2018-09-24T06:05:24.449Z,7.93
2018-09-24T06:07:58.061Z,7.99
2018-09-24T06:10:31.835Z,8.08
2018-09-24T06:13:05.628Z,8.12
2018-09-24T06:15:39.701Z,8.15
2018-09-24T06:18:13.261Z,8.19
2018-09-24T06:20:47.042Z,8.26
2018-09-24T06:23:20.850Z,8.28
2018-09-24T06:25:54.510Z,8.35
2018-09-24T06:28:31.300Z,8.41
2018-09-24T06:31:04.966Z,8.50
2018-09-24T06:33:38.949Z,8.54
2018-09-24T06:36:12.551Z,8.60
2018-09-24T06:38:46.360Z,8.67
2018-09-24T06:41:20.269Z,8.76
2018-09-24T06:43:54.024Z,8.84
2018-09-24T06:46:27.613Z,8.94
2018-09-24T06:49:01.353Z,9.03
2018-09-24T06:51:35.205Z,9.08
2018-09-24T06:54:08.843Z,9.15
2018-09-24T06:56:42.317Z,9.25
2018-09-24T06:59:16.088Z,9.40
2018-09-24T07:01:49.699Z,9.54
2018-09-24T07:04:23.528Z,9.60
2018-09-24T07:06:57.177Z,9.49
2018-09-24T07:09:30.981Z,9.43
2018-09-24T07:12:04.586Z,9.42
2018-09-24T07:14:38.382Z,9.55
2018-09-24T07:17:12.157Z,9.67
2018-09-24T07:19:45.897Z,9.76
2018-09-24T07:22:19.653Z,9.77
2018-09-24T07:24:53.361Z,9.89
2018-09-24T07:27:27.127Z,10.01
2018-09-24T07:30:00.857Z,10.11
2018-09-24T07:32:34.622Z,10.22
2018-09-24T07:35:12.079Z,10.36
2018-09-24T07:37:45.793Z,10.47
2018-09-24T07:40:19.526Z,10.58
2018-09-24T07:42:53.284Z,10.69
2018-09-24T07:45:27.054Z,10.80
2018-09-24T07:48:00.643Z,10.83
2018-09-24T07:50:34.396Z,10.88
2018-09-24T07:53:07.849Z,10.90
2018-09-24T07:55:41.638Z,10.95
2018-09-24T07:58:15.158Z,10.90
2018-09-24T08:00:48.833Z,11.15
2018-09-24T08:03:22.431Z,11.15
2018-09-24T08:05:56.154Z,11.16
2018-09-24T08:08:29.910Z,11.23
2018-09-24T08:11:03.493Z,11.33
2018-09-24T08:13:37.246Z,11.37
2018-09-24T08:16:11.038Z,11.52
2018-09-24T08:18:44.671Z,11.48
2018-09-24T08:21:18.482Z,11.49
2018-09-24T08:23:52.208Z,11.51
2018-09-24T08:26:26.042Z,11.60
2018-09-24T08:28:59.823Z,11.65
2018-09-24T08:31:33.389Z,11.66
2018-09-24T08:34:07.071Z,11.63
2018-09-24T08:36:40.845Z,11.81
2018-09-24T08:39:14.632Z,11.87
2018-09-24T08:41:48.398Z,11.89
2018-09-24T08:44:22.743Z,11.84
2018-09-24T08:46:56.463Z,11.82
2018-09-24T08:49:30.237Z,11.93
2018-09-24T08:52:03.833Z,12.09
2018-09-24T08:54:37.598Z,12.21
2018-09-24T08:57:11.992Z,12.26
2018-09-24T08:59:45.727Z,12.41
2018-09-24T09:02:19.505Z,12.43
2018-09-24T09:04:53.372Z,12.50
2018-09-24T09:07:27.018Z,12.41
2018-09-24T09:10:00.879Z,12.45
2018-09-24T09:12:34.610Z,12.52
2018-09-24T09:15:08.364Z,12.59
2018-09-24T09:17:42.013Z,12.59
2018-09-24T09:20:15.642Z,12.68
2018-09-24T09:22:49.081Z,12.68
2018-09-24T09:25:22.877Z,12.73
2018-09-24T09:27:56.424Z,12.63
2018-09-24T09:30:29.966Z,12.72
2018-09-24T09:33:03.712Z,12.77
2018-09-24T09:35:37.341Z,12.90
2018-09-24T09:38:10.985Z,12.94
2018-09-24T09:40:44.670Z,13.03
2018-09-24T09:43:18.419Z,13.17
2018-09-24T09:45:52.161Z,13.15
2018-09-24T09:48:25.857Z,13.21
2018-09-24T09:51:01.058Z,13.24
2018-09-24T09:53:34.836Z,13.50
2018-09-24T09:56:08.480Z,13.75
2018-09-24T09:58:42.221Z,14.05
2018-09-24T10:01:15.961Z,14.13
2018-09-24T10:03:49.558Z,14.11
2018-09-24T10:06:23.402Z,13.90
2018-09-24T10:08:57.053Z,13.50
2018-09-24T10:11:34.001Z,12.88
2018-09-24T10:14:07.796Z,11.62
2018-09-24T10:16:41.413Z,11.05
2018-09-24T10:19:15.227Z,11.04
2018-09-24T10:21:49.074Z,11.00
2018-09-24T10:24:22.608Z,11.04
2018-09-24T10:26:56.273Z,11.10
2018-09-24T10:29:29.897Z,11.14
2018-09-24T10:32:03.392Z,11.15
2018-09-24T10:34:37.140Z,11.25
2018-09-24T10:37:10.857Z,11.49
2018-09-24T10:39:44.566Z,11.70
2018-09-24T10:42:18.223Z,11.62
2018-09-24T10:44:51.894Z,11.71
2018-09-24T10:47:25.630Z,11.85
2018-09-24T10:49:59.404Z,12.09
2018-09-24T10:52:32.969Z,12.37
2018-09-24T10:55:06.519Z,12.39
2018-09-24T10:57:40.153Z,12.71
2018-09-24T11:00:13.811Z,12.83
2018-09-24T11:02:47.505Z,12.88
2018-09-24T11:05:21.221Z,12.98
2018-09-24T11:07:54.746Z,13.17
2018-09-24T11:10:28.449Z,13.32
2018-09-24T11:13:02.080Z,13.45
2018-09-24T11:15:35.594Z,13.60
2018-09-24T11:18:09.188Z,13.58
2018-09-24T11:20:42.921Z,13.51
2018-09-24T11:23:16.614Z,13.48
2018-09-24T11:25:50.330Z,13.68
2018-09-24T11:28:24.014Z,13.74
2018-09-24T11:30:57.810Z,13.70
2018-09-24T11:33:31.504Z,13.97
2018-09-24T11:36:05.259Z,14.21
2018-09-24T11:38:38.987Z,14.37
2018-09-24T11:41:12.689Z,14.41
2018-09-24T11:43:46.317Z,14.25
2018-09-24T11:46:20.038Z,14.17
2018-09-24T11:48:54.502Z,14.28
2018-09-24T11:51:28.266Z,14.15
2018-09-24T11:54:01.941Z,14.32
2018-09-24T11:56:35.630Z,14.73
2018-09-24T11:59:09.401Z,14.96
2018-09-24T12:01:43.153Z,15.13
2018-09-24T12:04:16.843Z,15.06
2018-09-24T12:06:50.625Z,15.06
2018-09-24T12:09:24.297Z,15.23
2018-09-24T12:11:58.132Z,15.06
2018-09-24T12:14:31.814Z,15.04
2018-09-24T12:17:05.561Z,15.04
2018-09-24T12:19:39.177Z,14.83
2018-09-24T12:22:12.893Z,14.49
2018-09-24T12:24:46.753Z,14.11
2018-09-24T12:27:20.401Z,13.45
2018-09-24T12:29:54.045Z,12.87
2018-09-24T12:32:27.891Z,12.49
2018-09-24T12:35:01.378Z,12.20
2018-09-24T12:37:35.114Z,11.84
2018-09-24T12:40:08.849Z,11.49
2018-09-24T12:42:42.459Z,11.35
2018-09-24T12:45:16.168Z,11.34
2018-09-24T12:47:49.940Z,11.26
2018-09-24T12:50:23.498Z,11.10
2018-09-24T12:52:57.264Z,11.20
2018-09-24T12:55:30.973Z,11.28
2018-09-24T12:58:04.578Z,11.36
2018-09-24T13:00:38.234Z,11.52
2018-09-24T13:03:12.073Z,11.94
2018-09-24T13:05:45.857Z,12.21
2018-09-24T13:08:19.498Z,13.28
2018-09-24T13:10:53.405Z,14.34
2018-09-24T13:13:27.144Z,14.61
2018-09-24T13:16:01.298Z,15.33
2018-09-24T13:18:34.986Z,15.48
2018-09-24T13:21:08.764Z,15.63
2018-09-24T13:23:42.273Z,16.26
2018-09-24T13:26:16.043Z,16.62
2018-09-24T13:28:49.801Z,16.63
2018-09-24T13:31:23.508Z,16.11
2018-09-24T13:33:57.698Z,15.22
2018-09-24T13:36:31.293Z,14.66
2018-09-24T13:39:04.770Z,14.20
2018-09-24T13:41:38.432Z,13.86
2018-09-24T13:44:12.375Z,13.75
2018-09-24T13:46:46.141Z,13.68
2018-09-24T13:49:22.057Z,13.47
2018-09-24T13:51:56.307Z,13.34
2018-09-24T13:54:29.976Z,13.40
2018-09-24T13:57:03.752Z,13.43
2018-09-24T13:59:37.412Z,13.39
2018-09-24T14:02:11.109Z,13.18
2018-09-24T14:04:44.809Z,12.31
2018-09-24T14:07:18.477Z,11.78
2018-09-24T14:09:52.109Z,11.61
2018-09-24T14:12:25.811Z,11.56
2018-09-24T14:14:59.519Z,11.62
2018-09-24T14:17:33.000Z,11.61
2018-09-24T14:20:06.783Z,11.65
2018-09-24T14:22:40.470Z,11.62
2018-09-24T14:25:14.070Z,11.63
2018-09-24T14:27:47.800Z,11.59
2018-09-24T14:30:21.270Z,11.59
2018-09-24T14:32:55.020Z,11.60
2018-09-24T14:35:28.785Z,11.66
2018-09-24T14:38:02.741Z,11.71
2018-09-24T14:40:36.610Z,11.70
2018-09-24T14:43:10.103Z,11.78
2018-09-24T14:45:43.651Z,11.94
2018-09-24T14:48:17.381Z,12.11
2018-09-24T14:50:51.141Z,12.36
2018-09-24T14:53:24.924Z,12.51
2018-09-24T14:55:58.677Z,12.74
2018-09-24T14:58:32.346Z,12.97
2018-09-24T15:01:06.134Z,12.80
2018-09-24T15:03:39.655Z,12.88
2018-09-24T15:06:13.596Z,13.62
2018-09-24T15:08:47.369Z,13.41
2018-09-24T15:11:21.199Z,13.35
2018-09-24T15:13:54.941Z,12.99
2018-09-24T15:16:28.778Z,12.72
2018-09-24T15:19:02.913Z,12.43
2018-09-24T15:21:36.579Z,13.04
2018-09-24T15:24:11.334Z,14.16
2018-09-24T15:26:45.115Z,14.76
2018-09-24T15:29:19.187Z,15.15
2018-09-24T15:31:53.029Z,14.69
2018-09-24T15:34:27.095Z,15.05
2018-09-24T15:37:00.954Z,15.64
2018-09-24T15:39:34.817Z,15.45
2018-09-24T15:42:19.024Z,15.68
2018-09-24T15:44:52.763Z,15.80
2018-09-24T15:47:26.490Z,15.86
2018-09-24T15:50:00.100Z,16.41
2018-09-24T15:52:33.704Z,16.29
2018-09-24T15:55:07.522Z,15.47
2018-09-24T15:57:41.177Z,14.44
2018-09-24T16:00:15.042Z,14.10
2018-09-24T16:02:48.688Z,14.12
2018-09-24T16:05:22.412Z,14.26
2018-09-24T16:07:56.318Z,14.03
2018-09-24T16:10:30.145Z,13.76
2018-09-24T16:13:03.919Z,13.60
2018-09-24T16:15:37.822Z,13.45
2018-09-24T16:18:11.638Z,13.31
2018-09-24T16:20:45.523Z,13.18
2018-09-24T16:23:19.375Z,13.12
2018-09-24T16:25:54.287Z,13.06
2018-09-24T16:28:30.615Z,12.98
2018-09-24T16:34:02.197Z,12.84
2018-09-24T16:36:36.023Z,12.81
2018-09-24T16:42:12.358Z,12.75
2018-09-24T16:44:46.139Z,12.72
2018-09-24T16:47:20.070Z,12.70
2018-09-24T16:49:56.711Z,12.67
2018-09-24T16:52:31.384Z,12.65
2018-09-24T16:55:05.290Z,12.61
2018-09-24T16:57:39.073Z,12.49
2018-09-24T17:00:37.874Z,12.40
2018-09-24T17:03:11.668Z,12.29
2018-09-24T17:05:45.366Z,12.20
2018-09-24T17:08:19.035Z,12.12
2018-09-24T17:10:52.757Z,11.99
2018-09-24T17:13:26.501Z,11.85
2018-09-24T17:16:00.265Z,11.76
2018-09-24T17:18:33.950Z,11.62
2018-09-24T17:21:08.602Z,11.51
2018-09-24T17:23:42.405Z,11.39
2018-09-24T17:26:16.232Z,11.35
2018-09-24T17:28:50.262Z,11.13
2018-09-24T17:31:24.015Z,11.19
2018-09-24T17:33:57.696Z,11.17
2018-09-24T17:36:31.505Z,11.13
2018-09-24T17:39:05.455Z,11.11
2018-09-24T17:41:39.344Z,11.04
2018-09-24T17:44:13.509Z,11.00
2018-09-24T17:46:55.817Z,10.93
2018-09-24T17:49:31.292Z,10.88
2018-09-24T17:52:05.667Z,10.78
2018-09-24T17:54:50.735Z,10.70
2018-09-24T17:57:24.603Z,10.59
2018-09-24T17:59:58.582Z,10.44
2018-09-24T18:02:32.529Z,10.31
2018-09-24T18:05:09.659Z,10.43
2018-09-24T18:07:43.654Z,10.50
2018-09-24T18:10:19.093Z,10.41
2018-09-24T18:12:55.550Z,10.26
2018-09-24T18:15:34.502Z,10.09
2018-09-24T18:18:09.883Z,10.02
2018-09-24T18:20:59.909Z,9.91
2018-09-24T18:23:36.145Z,9.89
2018-09-24T18:26:10.859Z,9.78
2018-09-24T18:28:46.017Z,9.98
2018-09-24T18:34:09.786Z,10.25
2018-09-24T18:36:45.390Z,10.25
2018-09-24T18:39:19.771Z,10.35
2018-09-24T18:41:54.891Z,10.41
2018-09-24T18:44:29.029Z,10.43
2018-09-24T18:47:03.590Z,10.34
2018-09-24T18:49:37.761Z,10.39
2018-09-24T18:52:23.598Z,10.38
2018-09-24T18:54:57.802Z,10.35
2018-09-24T18:57:31.808Z,10.26
2018-09-24T19:00:09.363Z,10.16
2018-09-24T19:02:43.447Z,10.07
2018-09-24T19:05:18.071Z,9.98
2018-09-24T19:07:52.659Z,9.83
2018-09-24T19:10:28.423Z,9.72
2018-09-24T19:13:02.871Z,9.62
2018-09-24T19:18:30.521Z,9.53
2018-09-24T19:21:14.183Z,9.60
2018-09-24T19:23:51.266Z,9.71
2018-09-24T19:29:05.052Z,9.83
2018-09-24T19:31:39.093Z,9.80
2018-09-24T19:40:05.124Z,9.61
2018-09-24T19:42:39.036Z,9.60
2018-09-24T19:45:13.164Z,9.54
2018-09-24T19:47:47.765Z,9.40
2018-09-24T19:53:11.496Z,9.33
2018-09-24T19:55:46.592Z,9.30
2018-09-24T19:58:21.543Z,9.31
2018-09-24T20:00:56.157Z,9.32
2018-09-24T20:03:31.734Z,9.26
2018-09-24T20:06:08.224Z,9.28
2018-09-24T20:08:42.229Z,9.37
2018-09-24T20:11:17.335Z,9.39
2018-09-24T20:13:52.473Z,9.44
2018-09-24T20:16:27.596Z,9.43
2018-09-24T20:19:01.753Z,9.54
2018-09-24T20:21:35.924Z,9.64
2018-09-24T20:24:14.710Z,9.67
2018-09-24T20:26:48.437Z,9.63
2018-09-24T20:29:22.269Z,9.68
2018-09-24T20:31:55.981Z,9.72
2018-09-24T20:34:30.034Z,9.70
2018-09-24T20:37:04.126Z,9.57
2018-09-24T20:39:37.951Z,9.46
2018-09-24T20:42:11.607Z,9.35
2018-09-24T20:44:45.884Z,9.36
2018-09-24T20:47:19.898Z,9.30
2018-09-24T20:49:53.773Z,9.32
2018-09-24T20:52:27.682Z,9.21
2018-09-24T20:55:01.445Z,9.21
2018-09-24T20:57:35.318Z,9.28
2018-09-24T21:00:09.162Z,9.26
2018-09-24T21:02:43.172Z,9.29
2018-09-24T21:05:16.778Z,9.31
2018-09-24T21:07:52.790Z,9.36
2018-09-24T21:10:26.386Z,9.36
2018-09-24T21:13:00.164Z,9.40
2018-09-24T21:15:34.139Z,9.44
2018-09-24T21:18:08.147Z,9.46
2018-09-24T21:20:42.623Z,9.47
2018-09-24T21:23:16.432Z,9.46
2018-09-24T21:25:50.436Z,9.45
2018-09-24T21:28:24.654Z,9.43
2018-09-24T21:31:00.621Z,9.41
2018-09-24T21:33:34.672Z,9.40
2018-09-24T21:36:09.158Z,9.41
2018-09-24T21:38:43.246Z,9.39
2018-09-24T21:41:17.191Z,9.42
2018-09-24T21:43:51.061Z,9.44
2018-09-24T21:46:25.540Z,9.42
2018-09-24T21:48:59.359Z,9.45
2018-09-24T21:51:33.430Z,9.42
2018-09-24T21:54:07.640Z,9.36
2018-09-24T21:56:41.478Z,9.23
2018-09-24T21:59:15.229Z,9.12
2018-09-24T22:01:49.112Z,9.04
2018-09-24T22:04:23.577Z,8.95
2018-09-24T22:06:58.529Z,8.90
2018-09-24T22:09:32.255Z,8.79
2018-09-24T22:12:06.303Z,8.61
2018-09-24T22:14:40.641Z,8.49
2018-09-24T22:17:14.675Z,8.35
2018-09-24T22:19:48.870Z,8.36
2018-09-24T22:22:22.817Z,8.23
2018-09-24T22:24:56.864Z,8.25
2018-09-24T22:27:30.546Z,8.29
2018-09-24T22:30:04.550Z,8.37
2018-09-24T22:32:38.333Z,8.56
2018-09-24T22:35:12.059Z,8.56
2018-09-24T22:37:46.004Z,8.62
2018-09-24T22:40:19.883Z,8.80
2018-09-24T22:42:53.745Z,8.80
2018-09-24T22:45:27.432Z,8.94
2018-09-24T22:48:01.725Z,8.97
2018-09-24T22:50:35.546Z,9.14
2018-09-24T22:53:09.457Z,9.21
2018-09-24T22:55:43.267Z,9.29
2018-09-24T22:58:17.521Z,9.28
2018-09-24T23:00:51.365Z,9.27
2018-09-24T23:03:25.217Z,9.19
2018-09-24T23:05:59.251Z,9.14
2018-09-24T23:08:33.136Z,9.10
2018-09-24T23:11:08.358Z,8.99
2018-09-24T23:13:42.261Z,9.00
2018-09-24T23:16:16.013Z,9.00
2018-09-24T23:18:49.717Z,8.95
2018-09-24T23:21:23.378Z,8.90
2018-09-24T23:23:57.225Z,8.88
2018-09-24T23:26:30.786Z,8.84
2018-09-24T23:29:04.425Z,8.75
2018-09-24T23:31:37.971Z,8.73
2018-09-24T23:34:12.410Z,8.69
2018-09-24T23:36:46.213Z,8.64
2018-09-24T23:39:20.040Z,8.52
2018-09-24T23:41:53.901Z,8.49
2018-09-24T23:44:33.652Z,8.49
2018-09-24T23:47:07.422Z,8.39
2018-09-24T23:49:41.316Z,8.28
2018-09-24T23:52:15.899Z,8.33
2018-09-24T23:54:49.662Z,8.36
2018-09-24T23:57:23.387Z,8.30
2018-09-24T23:59:58.313Z,8.30
